createdAt,value
2019-03-08T00:00:56.437Z,18.30
2019-03-08T00:06:02.384Z,25.15
2019-03-08T00:11:08.281Z,31.27
2019-03-08T00:16:14.291Z,27.30
2019-03-08T00:21:20.347Z,31.37
2019-03-08T00:26:26.857Z,28.50
2019-03-08T00:31:32.940Z,79.70
2019-03-08T00:36:39.019Z,26.20
2019-03-08T00:41:45.033Z,29.13
2019-03-08T00:46:51.948Z,40.52
2019-03-08T00:51:58.162Z,36.42
2019-03-08T00:57:04.887Z,28.30
2019-03-08T01:02:11.679Z,58.13
2019-03-08T01:07:17.691Z,35.43
2019-03-08T01:12:24.037Z,53.30
2019-03-08T01:17:30.463Z,46.37
2019-03-08T01:22:36.755Z,35.60
2019-03-08T01:28:08.779Z,48.63
2019-03-08T01:33:15.519Z,35.60
2019-03-08T01:38:21.773Z,24.30
2019-03-08T01:43:27.868Z,30.83
2019-03-08T01:48:33.940Z,28.60
2019-03-08T01:53:39.891Z,26.87
2019-03-08T02:03:51.376Z,36.68
2019-03-08T02:08:57.300Z,34.47
2019-03-08T02:14:03.304Z,42.03
2019-03-08T02:19:09.542Z,37.90
2019-03-08T02:24:15.774Z,26.37
2019-03-08T02:29:22.299Z,24.63
2019-03-08T02:34:28.379Z,43.03
2019-03-08T02:39:34.853Z,47.03
2019-03-08T02:44:41.152Z,39.88
2019-03-08T02:49:47.170Z,44.13
2019-03-08T02:54:53.897Z,47.62
2019-03-08T03:00:00.299Z,35.43
2019-03-08T03:10:11.829Z,28.50
2019-03-08T03:15:18.335Z,30.13
2019-03-08T03:20:24.510Z,32.10
2019-03-08T03:25:31.400Z,29.02
2019-03-08T03:30:37.742Z,31.53
2019-03-08T03:35:43.837Z,37.13
2019-03-08T03:40:50.491Z,29.35
2019-03-08T03:51:02.282Z,30.55
2019-03-08T03:56:08.183Z,24.20
2019-03-08T04:01:28.296Z,21.25
2019-03-08T04:06:34.512Z,24.93
2019-03-08T04:11:40.828Z,20.00
2019-03-08T04:16:47.521Z,33.65
2019-03-08T04:21:53.775Z,19.57
2019-03-08T04:26:59.836Z,22.33
2019-03-08T04:32:05.883Z,30.50
2019-03-08T04:37:12.341Z,16.40
2019-03-08T04:42:18.616Z,27.00
2019-03-08T04:47:25.434Z,35.88
2019-03-08T04:52:31.759Z,19.35
2019-03-08T04:57:38.679Z,35.95
2019-03-08T05:02:45.215Z,20.08
2019-03-08T05:07:51.354Z,29.43
2019-03-08T05:12:57.520Z,30.23
2019-03-08T05:18:03.732Z,23.67
2019-03-08T05:23:09.670Z,23.07
2019-03-08T05:28:15.962Z,9.60
2019-03-08T05:33:22.235Z,5.10
2019-03-08T05:43:33.406Z,7.42
2019-03-08T05:48:39.338Z,5.70
2019-03-08T05:53:45.589Z,15.80
2019-03-08T05:58:51.889Z,7.47
2019-03-08T06:03:58.022Z,9.33
2019-03-08T06:09:05.835Z,5.83
2019-03-08T06:19:17.290Z,11.75
2019-03-08T06:24:23.312Z,6.00
2019-03-08T06:29:29.321Z,28.03
2019-03-08T06:34:35.560Z,10.77
2019-03-08T06:39:41.813Z,11.33
2019-03-08T06:44:48.372Z,33.25
2019-03-08T06:49:54.394Z,9.67
2019-03-08T06:55:00.770Z,53.70
2019-03-08T07:00:30.499Z,9.57
2019-03-08T07:05:36.770Z,7.93
2019-03-08T07:10:42.943Z,5.83
2019-03-08T07:15:48.883Z,9.27
2019-03-08T07:21:03.273Z,7.07
2019-03-08T07:26:27.083Z,14.53
2019-03-08T07:32:04.490Z,14.63
2019-03-08T07:37:29.663Z,13.20
2019-03-08T07:42:53.663Z,19.20
2019-03-08T07:48:22.018Z,40.23
2019-03-08T07:54:05.578Z,9.67
2019-03-08T07:59:26.277Z,5.03
2019-03-08T08:04:50.340Z,8.05
2019-03-08T08:10:21.447Z,7.53
2019-03-08T08:15:39.005Z,9.20
2019-03-08T08:21:03.307Z,18.17
2019-03-08T08:26:46.732Z,15.33
2019-03-08T08:32:17.883Z,15.90
2019-03-08T08:37:52.246Z,21.82
2019-03-08T08:43:22.840Z,20.20
2019-03-08T08:48:50.673Z,13.37
2019-03-08T08:54:18.248Z,4.65
2019-03-08T08:59:49.407Z,10.53
2019-03-08T09:05:26.520Z,29.17
2019-03-08T09:10:57.321Z,18.73
2019-03-08T09:16:22.107Z,7.10
2019-03-08T09:21:53.394Z,9.53
2019-03-08T09:27:14.768Z,4.30
2019-03-08T09:32:39.632Z,28.83
2019-03-08T09:37:59.866Z,36.70
2019-03-08T09:43:22.726Z,24.30
2019-03-08T09:48:48.849Z,26.20
2019-03-08T09:54:28.329Z,18.23
2019-03-08T10:00:02.598Z,21.17
2019-03-08T10:05:19.092Z,40.50
2019-03-08T10:10:36.457Z,32.27
2019-03-08T10:16:10.527Z,28.83
2019-03-08T10:21:53.589Z,20.53
2019-03-08T10:27:18.470Z,29.10
2019-03-08T10:32:42.190Z,32.47
2019-03-08T10:37:58.725Z,40.55
2019-03-08T10:43:10.075Z,51.55
2019-03-08T10:48:25.869Z,20.08
2019-03-08T10:53:40.185Z,20.43
2019-03-08T10:59:01.689Z,30.73
2019-03-08T11:04:25.599Z,15.68
2019-03-08T11:09:38.586Z,9.80
2019-03-08T11:15:02.868Z,17.47
2019-03-08T11:20:28.871Z,19.77
2019-03-08T11:25:52.236Z,16.73
2019-03-08T11:31:12.793Z,12.33
2019-03-08T11:36:38.107Z,20.75
2019-03-08T11:42:09.196Z,27.77
2019-03-08T11:47:39.993Z,13.60
2019-03-08T11:53:10.998Z,30.37
2019-03-08T11:58:38.919Z,19.03
2019-03-08T12:04:02.934Z,30.13
2019-03-08T12:09:51.859Z,35.13
2019-03-08T12:15:20.101Z,66.47
2019-03-08T12:20:44.887Z,15.73
2019-03-08T12:26:20.326Z,31.27
2019-03-08T12:31:45.406Z,21.37
2019-03-08T12:37:10.817Z,23.77
2019-03-08T12:42:39.037Z,37.97
2019-03-08T12:48:13.910Z,92.63
2019-03-08T12:53:51.022Z,39.55
2019-03-08T12:59:06.513Z,32.93
2019-03-08T13:04:46.529Z,40.83
2019-03-08T13:09:53.938Z,63.40
2019-03-08T13:15:02.375Z,85.13
2019-03-08T13:20:13.693Z,49.10
2019-03-08T13:25:19.815Z,46.83
2019-03-08T13:30:25.954Z,37.47
2019-03-08T13:35:32.709Z,38.97
2019-03-08T13:40:39.021Z,41.45
2019-03-08T13:45:45.655Z,34.45
2019-03-08T13:55:57.054Z,50.35
2019-03-08T14:01:03.701Z,53.13
2019-03-08T14:06:10.335Z,25.57
2019-03-08T14:11:16.678Z,43.97
2019-03-08T14:16:22.849Z,32.07
2019-03-08T14:21:29.493Z,27.77
2019-03-08T14:26:36.075Z,34.53
2019-03-08T14:31:55.732Z,37.48
2019-03-08T14:37:01.870Z,41.73
2019-03-08T14:42:19.941Z,38.85
2019-03-08T14:47:33.342Z,33.77
2019-03-08T14:52:40.765Z,31.17
2019-03-08T14:57:47.474Z,53.86
2019-03-08T15:02:54.033Z,35.10
2019-03-08T15:08:00.523Z,37.35
2019-03-08T15:13:07.006Z,35.98
2019-03-08T15:18:14.738Z,48.17
2019-03-08T15:23:20.985Z,29.93
2019-03-08T15:28:27.006Z,46.13
2019-03-08T15:33:33.590Z,81.00
2019-03-08T15:38:39.660Z,51.63
2019-03-08T15:43:47.043Z,69.15
2019-03-08T15:48:54.831Z,60.27
2019-03-08T15:54:43.246Z,166.95
2019-03-08T15:59:49.210Z,104.53
2019-03-08T16:04:55.819Z,136.53
2019-03-08T16:10:02.235Z,81.60
2019-03-08T16:15:08.916Z,179.00
2019-03-08T16:20:16.593Z,119.00
2019-03-08T16:25:23.001Z,67.13
2019-03-08T16:30:33.932Z,65.80
2019-03-08T16:35:49.484Z,88.43
2019-03-08T16:41:25.599Z,138.27
2019-03-08T16:46:50.560Z,137.80
2019-03-08T16:52:18.730Z,130.10
2019-03-08T16:57:31.565Z,117.20
2019-03-08T17:02:59.053Z,125.70
2019-03-08T17:08:27.278Z,70.07
2019-03-08T17:13:52.313Z,64.90
2019-03-08T17:19:23.766Z,46.30
2019-03-08T17:24:47.822Z,95.57
2019-03-08T17:30:05.065Z,75.43
2019-03-08T17:35:36.400Z,87.90
2019-03-08T17:41:01.550Z,108.67
2019-03-08T17:48:27.583Z,64.20
2019-03-08T18:08:57.821Z,212.60
2019-03-08T18:14:25.162Z,27.37
2019-03-08T18:42:16.842Z,164.53
2019-03-08T18:47:40.356Z,379.00
2019-03-08T18:53:19.974Z,308.68
2019-03-08T19:00:10.255Z,138.27
2019-03-08T19:48:33.545Z,334.33
2019-03-08T19:54:04.416Z,250.50
2019-03-08T19:59:32.478Z,342.03
2019-03-08T20:02:44.087Z,374.30
2019-03-08T20:03:38.198Z,328.40
2019-03-08T20:04:38.020Z,349.67
2019-03-08T20:05:18.163Z,322.65
2019-03-08T20:06:00.343Z,331.68
2019-03-08T20:06:52.942Z,317.87
2019-03-08T20:07:52.025Z,324.05
2019-03-08T20:08:56.627Z,272.80
2019-03-08T20:10:07.780Z,275.00
2019-03-08T20:10:58.845Z,262.27
2019-03-08T20:12:00.239Z,264.60
2019-03-08T20:12:42.372Z,302.80
2019-03-08T20:13:26.587Z,284.37
2019-03-08T20:14:13.505Z,266.10
2019-03-08T20:15:06.090Z,280.23
2019-03-08T20:16:01.325Z,291.70
2019-03-08T20:16:53.825Z,283.45
2019-03-08T20:17:46.234Z,310.52
2019-03-08T20:18:37.081Z,279.52
2019-03-08T20:20:20.820Z,271.35
2019-03-08T20:21:25.419Z,273.10
2019-03-08T20:22:17.954Z,252.18
2019-03-08T20:22:56.475Z,266.98
2019-03-08T20:23:47.529Z,258.38
2019-03-08T20:24:46.431Z,251.42
2019-03-08T20:25:51.174Z,258.38
2019-03-08T20:29:06.790Z,272.23
2019-03-08T20:29:59.093Z,239.10
2019-03-08T20:30:57.719Z,180.67
2019-03-08T20:31:53.682Z,76.28
2019-03-08T20:32:51.582Z,43.78
2019-03-08T20:33:42.645Z,25.15
2019-03-08T20:34:24.819Z,38.90
2019-03-08T20:35:17.205Z,92.75
2019-03-08T20:36:15.668Z,60.05
2019-03-08T20:37:11.201Z,43.75
2019-03-08T20:38:15.715Z,48.87
2019-03-08T20:39:06.324Z,35.15
2019-03-08T20:39:45.624Z,32.73
2019-03-08T20:40:40.874Z,35.73
2019-03-08T20:41:42.340Z,48.13
2019-03-08T20:42:38.172Z,50.63
2019-03-08T20:43:24.710Z,50.12
2019-03-08T20:44:02.155Z,32.35
2019-03-08T20:44:47.597Z,28.65
2019-03-08T20:46:03.361Z,22.40
2019-03-08T20:46:43.303Z,21.45
2019-03-08T20:47:20.545Z,14.73
2019-03-08T20:47:53.774Z,17.73
2019-03-08T20:48:26.847Z,19.30
2019-03-08T20:49:00.253Z,18.62
2019-03-08T20:49:33.321Z,17.95
2019-03-08T20:50:09.036Z,18.45
2019-03-08T20:50:42.302Z,16.77
2019-03-08T20:51:15.381Z,17.10
2019-03-08T20:51:49.157Z,21.10
2019-03-08T20:52:22.085Z,20.37
2019-03-08T20:52:55.233Z,16.75
2019-03-08T20:53:28.526Z,18.57
2019-03-08T20:59:11.709Z,22.07
2019-03-08T20:59:44.620Z,18.00
2019-03-08T21:00:18.226Z,17.73
2019-03-08T21:00:51.463Z,18.77
2019-03-08T21:02:59.108Z,21.70
2019-03-08T21:03:32.169Z,22.05
2019-03-08T21:04:05.401Z,23.65
2019-03-08T21:04:38.371Z,23.20
2019-03-08T21:05:11.981Z,25.60
2019-03-08T21:05:44.965Z,25.17
2019-03-08T21:06:18.391Z,27.50
2019-03-08T21:06:51.547Z,18.15
2019-03-08T21:07:24.896Z,20.37
2019-03-08T21:07:58.100Z,24.37
2019-03-08T21:08:31.180Z,20.23
2019-03-08T21:09:07.834Z,21.30
2019-03-08T21:09:41.397Z,21.85
2019-03-08T21:12:31.444Z,23.80
2019-03-08T21:13:05.063Z,21.87
2019-03-08T21:13:38.208Z,20.20
2019-03-08T21:14:11.155Z,22.62
2019-03-08T21:14:44.187Z,21.60
2019-03-08T21:15:25.089Z,21.50
2019-03-08T21:15:52.041Z,22.45
2019-03-08T21:16:25.080Z,24.82
2019-03-08T21:16:58.407Z,22.58
2019-03-08T21:17:31.371Z,22.07
2019-03-08T21:18:04.431Z,19.98
2019-03-08T21:23:43.569Z,19.73
2019-03-08T21:28:46.817Z,20.40
2019-03-08T21:33:49.848Z,20.82
2019-03-08T21:38:52.967Z,21.60
2019-03-08T21:43:55.911Z,21.70
2019-03-08T21:48:58.882Z,18.87
2019-03-08T21:54:01.915Z,19.10
2019-03-08T21:59:05.005Z,17.17
2019-03-08T22:04:46.115Z,21.48
2019-03-08T22:10:03.960Z,16.87
2019-03-08T22:15:07.357Z,12.30
2019-03-08T22:20:10.702Z,18.02
2019-03-08T22:25:13.776Z,18.60
2019-03-08T22:30:17.292Z,18.45
2019-03-08T22:35:20.569Z,20.30
2019-03-08T22:40:23.677Z,14.03
2019-03-08T22:45:26.820Z,16.27
2019-03-08T22:50:30.179Z,12.28
2019-03-08T22:55:33.184Z,13.85
2019-03-08T23:00:59.221Z,9.33
2019-03-08T23:06:02.425Z,8.18
2019-03-08T23:11:06.024Z,7.97
2019-03-08T23:16:09.224Z,12.18
2019-03-08T23:21:12.556Z,6.28
2019-03-08T23:26:15.705Z,10.93
2019-03-08T23:31:26.314Z,8.25
2019-03-08T23:36:29.566Z,7.30
2019-03-08T23:41:32.758Z,5.92
2019-03-08T23:46:35.988Z,8.93
2019-03-08T23:51:39.035Z,6.85
2019-03-08T23:56:42.544Z,17.12
